Time;durP1;ratioP1;P1;durP2;ratioP2;P2;SDS_P1;SDS_P2;PMS_P1;PMS_P2;Temp;Humidity;BMP_temperature;BMP_pressure;BME280_temperature;BME280_humidity;BME280_pressure;Samples;Min_cycle;Max_cycle;Signal;HPM_P1;HPM_P2
2023/08/21 00:00:03;;;;;;;6.30;4.63;;;21.10;99.90;;;;;;4943578;28;20037;-85
2023/08/21 00:02:29;;;;;;;8.57;4.28;;;21.00;99.90;;;;;;4934545;29;20511;-89
2023/08/21 00:04:55;;;;;;;10.88;4.85;;;21.00;99.90;;;;;;4939831;29;20301;-86
2023/08/21 00:07:22;;;;;;;16.00;4.78;;;21.00;99.90;;;;;;4942102;29;20044;-90
2023/08/21 00:09:48;;;;;;;10.68;5.32;;;20.90;99.90;;;;;;4943843;28;20039;-89
2023/08/21 00:12:13;;;;;;;8.35;4.03;;;20.90;99.90;;;;;;4940863;28;20034;-89
2023/08/21 00:14:39;;;;;;;6.35;4.72;;;20.90;99.90;;;;;;4937241;28;20032;-89
2023/08/21 00:17:05;;;;;;;9.25;5.05;;;20.80;99.90;;;;;;4939638;28;20042;-90
2023/08/21 00:19:31;;;;;;;8.95;4.43;;;20.80;99.90;;;;;;4942433;29;20505;-89
2023/08/21 00:22:01;;;;;;;12.35;5.13;;;20.70;99.90;;;;;;4935236;29;20079;-85
2023/08/21 00:24:27;;;;;;;5.50;3.83;;;20.70;99.90;;;;;;4941615;28;20031;-89
2023/08/21 00:26:53;;;;;;;8.32;4.25;;;20.70;99.90;;;;;;4936444;29;20123;-89
2023/08/21 00:29:19;;;;;;;9.25;5.15;;;20.70;99.90;;;;;;4939214;29;20159;-86
2023/08/21 00:31:44;;;;;;;8.02;5.85;;;20.60;99.90;;;;;;4937866;29;20031;-89
2023/08/21 00:34:10;;;;;;;9.57;5.15;;;20.60;99.90;;;;;;4930956;29;20499;-87
2023/08/21 00:36:36;;;;;;;9.63;5.50;;;20.60;99.90;;;;;;4933929;28;20134;-85
2023/08/21 00:39:02;;;;;;;16.20;6.47;;;20.50;99.90;;;;;;4938145;28;20063;-89
2023/08/21 00:41:27;;;;;;;10.82;5.68;;;20.50;99.90;;;;;;4940853;28;20140;-89
2023/08/21 00:43:53;;;;;;;16.42;6.47;;;20.50;99.90;;;;;;4942023;28;20401;-90
2023/08/21 00:46:19;;;;;;;21.23;7.03;;;20.50;99.90;;;;;;4941697;29;20426;-86
2023/08/21 00:48:44;;;;;;;14.70;6.47;;;20.50;99.90;;;;;;4943805;28;20023;-89
2023/08/21 00:51:11;;;;;;;15.27;6.50;;;20.50;99.90;;;;;;4940853;28;20038;-87
2023/08/21 00:53:37;;;;;;;15.88;6.93;;;20.60;99.90;;;;;;4944648;29;20118;-90
2023/08/21 00:56:03;;;;;;;11.02;6.15;;;20.60;99.90;;;;;;4943728;29;20125;-88
2023/08/21 00:58:29;;;;;;;15.13;6.38;;;20.60;99.90;;;;;;4938033;29;20425;-90
2023/08/21 01:00:55;;;;;;;15.82;6.53;;;20.60;99.90;;;;;;4942123;29;20062;-88
2023/08/21 01:03:21;;;;;;;11.35;6.00;;;20.60;99.90;;;;;;4942337;28;20042;-84
2023/08/21 01:05:47;;;;;;;14.43;6.57;;;20.60;99.90;;;;;;4933116;28;20032;-89
2023/08/21 01:08:44;;;;;;;19.70;6.60;;;20.60;99.90;;;;;;4941078;28;20425;-88
2023/08/21 01:11:45;;;;;;;13.15;6.38;;;20.60;99.90;;;;;;4915706;28;20378;-87
2023/08/21 01:14:35;;;;;;;12.77;5.70;;;20.70;99.90;;;;;;4922614;29;20043;-89
2023/08/21 01:17:07;;;;;;;7.70;5.38;;;20.70;99.90;;;;;;4935925;28;20039;-89
2023/08/21 01:19:39;;;;;;;8.68;5.32;;;20.70;99.90;;;;;;4942182;29;20118;-89
2023/08/21 01:22:05;;;;;;;8.27;5.03;;;20.70;99.90;;;;;;4934071;28;20708;-89
2023/08/21 01:24:30;;;;;;;14.45;7.03;;;20.70;99.90;;;;;;4939402;28;20011;-89
2023/08/21 01:26:59;;;;;;;17.83;6.82;;;20.70;99.90;;;;;;4940896;29;20035;-85
2023/08/21 01:29:25;;;;;;;13.48;5.80;;;20.70;99.90;;;;;;4939508;29;20050;-89
2023/08/21 01:31:58;;;;;;;16.63;6.47;;;20.80;99.90;;;;;;4938005;28;20062;-88
2023/08/21 01:34:26;;;;;;;10.18;5.47;;;20.70;99.90;;;;;;4934132;29;20023;-88
2023/08/21 01:36:52;;;;;;;11.18;5.07;;;20.80;99.90;;;;;;4934216;29;20366;-85
2023/08/21 01:39:18;;;;;;;15.35;6.22;;;20.80;99.90;;;;;;4943485;29;20042;-89
2023/08/21 01:41:44;;;;;;;15.82;6.18;;;20.90;99.90;;;;;;4946339;28;20052;-88
2023/08/21 01:44:10;;;;;;;13.10;5.25;;;20.80;99.90;;;;;;4942476;29;20146;-87
2023/08/21 01:46:35;;;;;;;8.43;5.40;;;20.90;99.90;;;;;;4939479;29;20028;-89
2023/08/21 01:49:02;;;;;;;13.95;5.60;;;20.90;99.90;;;;;;4942790;28;20020;-85
2023/08/21 01:51:28;;;;;;;22.38;6.20;;;20.90;99.90;;;;;;4938807;28;20347;-86
2023/08/21 01:53:53;;;;;;;10.02;5.35;;;20.90;99.90;;;;;;4943882;29;20031;-90
2023/08/21 01:56:19;;;;;;;9.18;5.18;;;20.90;99.90;;;;;;4937412;29;20610;-89
2023/08/21 01:58:45;;;;;;;12.68;5.10;;;21.00;99.90;;;;;;4941921;28;20034;-89
2023/08/21 02:01:10;;;;;;;7.63;4.43;;;21.00;99.90;;;;;;4934168;28;20027;-89
2023/08/21 02:03:36;;;;;;;10.52;4.85;;;20.90;99.90;;;;;;4942961;28;20016;-84
2023/08/21 02:06:02;;;;;;;14.15;5.25;;;20.90;99.90;;;;;;4939791;29;20047;-89
2023/08/21 02:08:34;;;;;;;9.90;4.95;;;20.90;99.90;;;;;;4932636;28;20030;-87
2023/08/21 02:11:00;;;;;;;19.60;5.40;;;20.90;99.90;;;;;;4938624;29;20277;-89
2023/08/21 02:13:26;;;;;;;13.98;5.57;;;20.90;99.90;;;;;;4941369;29;20448;-87
2023/08/21 02:15:52;;;;;;;22.60;6.90;;;20.90;99.90;;;;;;4928478;29;20147;-89
2023/08/21 02:18:17;;;;;;;17.17;6.20;;;20.90;99.90;;;;;;4932105;29;20077;-89
2023/08/21 02:20:43;;;;;;;9.68;5.05;;;21.00;99.90;;;;;;4944009;28;20473;-88
2023/08/21 02:23:09;;;;;;;14.45;4.78;;;20.90;99.90;;;;;;4942192;28;20023;-89
2023/08/21 02:25:36;;;;;;;21.13;5.70;;;20.90;99.90;;;;;;4942102;29;20019;-89
2023/08/21 02:28:03;;;;;;;12.60;5.15;;;20.90;99.90;;;;;;4945471;29;20110;-88
2023/08/21 02:30:29;;;;;;;16.13;5.90;;;20.90;99.90;;;;;;4943124;29;20078;-88
2023/08/21 02:32:55;;;;;;;12.10;4.72;;;20.90;99.90;;;;;;4944212;29;20031;-88
2023/08/21 02:35:21;;;;;;;14.80;4.85;;;20.90;99.90;;;;;;4940271;28;20505;-90
2023/08/21 02:37:47;;;;;;;10.98;4.97;;;20.90;99.90;;;;;;4944670;28;20385;-85
2023/08/21 02:40:12;;;;;;;14.07;4.63;;;20.90;99.90;;;;;;4932353;29;20035;-83
2023/08/21 02:42:38;;;;;;;32.85;7.97;;;20.90;99.90;;;;;;4940173;29;20377;-83
2023/08/21 02:45:08;;;;;;;15.85;6.72;;;20.90;99.90;;;;;;4941798;29;20039;-83
2023/08/21 02:47:41;;;;;;;16.27;5.90;;;20.70;99.90;;;;;;4936685;29;20045;-83
2023/08/21 02:50:08;;;;;;;15.75;6.80;;;20.50;99.90;;;;;;4940547;29;20230;-83
2023/08/21 02:52:35;;;;;;;14.82;6.50;;;20.40;99.90;;;;;;4942994;29;20033;-83
2023/08/21 02:55:01;;;;;;;20.73;6.78;;;20.20;99.90;;;;;;4944108;28;20031;-84
2023/08/21 02:57:27;;;;;;;22.80;8.13;;;20.10;99.90;;;;;;4942631;29;20030;-84
2023/08/21 02:59:53;;;;;;;14.73;6.57;;;20.10;99.90;;;;;;4941369;28;20520;-84
2023/08/21 03:02:19;;;;;;;20.92;7.07;;;20.00;99.90;;;;;;4938918;29;20027;-85
2023/08/21 03:04:45;;;;;;;13.98;6.35;;;20.00;99.90;;;;;;4942973;29;20481;-84
2023/08/21 03:07:11;;;;;;;12.77;6.75;;;19.90;99.90;;;;;;4926887;29;20035;-84
2023/08/21 03:09:37;;;;;;;6.75;5.72;;;19.90;99.90;;;;;;4927417;29;20034;-85
2023/08/21 03:12:03;;;;;;;10.73;6.43;;;20.00;99.90;;;;;;4943017;28;20414;-85
2023/08/21 03:14:29;;;;;;;13.82;7.22;;;20.00;99.90;;;;;;4945709;29;20110;-85
2023/08/21 03:16:54;;;;;;;17.48;7.57;;;20.00;99.90;;;;;;4943880;29;20126;-86
2023/08/21 03:19:20;;;;;;;21.23;8.13;;;19.90;99.90;;;;;;4941257;29;20027;-85
2023/08/21 03:21:46;;;;;;;12.63;6.50;;;19.90;99.90;;;;;;4940897;29;20549;-85
2023/08/21 03:24:12;;;;;;;18.40;7.07;;;19.80;99.90;;;;;;4946344;29;20039;-86
2023/08/21 03:26:37;;;;;;;11.00;6.78;;;19.80;99.90;;;;;;4946111;28;20070;-85
2023/08/21 03:29:03;;;;;;;17.85;6.95;;;19.80;99.90;;;;;;4947800;28;20388;-85
2023/08/21 03:31:30;;;;;;;12.57;6.40;;;19.80;99.90;;;;;;4941330;28;20057;-85
2023/08/21 03:33:55;;;;;;;11.63;6.38;;;19.70;99.90;;;;;;4944976;29;20034;-86
2023/08/21 03:36:22;;;;;;;10.15;5.75;;;19.80;99.90;;;;;;4940195;28;20043;-85
2023/08/21 03:38:48;;;;;;;9.77;5.68;;;19.70;99.90;;;;;;4946160;29;20118;-86
2023/08/21 03:41:13;;;;;;;8.25;6.85;;;19.80;99.90;;;;;;4941024;29;20135;-86
2023/08/21 03:43:39;;;;;;;11.60;6.47;;;19.70;99.90;;;;;;4939318;28;20114;-85
2023/08/21 03:46:04;;;;;;;13.77;7.25;;;19.70;99.90;;;;;;4934639;29;20118;-85
2023/08/21 03:48:30;;;;;;;11.25;6.25;;;19.70;99.90;;;;;;4940700;28;20120;-86
2023/08/21 03:50:58;;;;;;;16.38;6.68;;;19.60;99.90;;;;;;4937496;29;20042;-86
2023/08/21 03:53:24;;;;;;;12.25;6.25;;;19.60;99.90;;;;;;4937537;28;20291;-85
2023/08/21 03:55:50;;;;;;;11.90;6.93;;;19.60;99.90;;;;;;4930985;29;20043;-86
2023/08/21 03:58:15;;;;;;;14.32;7.30;;;19.60;99.90;;;;;;4940504;29;20008;-86
2023/08/21 04:00:41;;;;;;;17.55;7.35;;;19.60;99.90;;;;;;4943614;29;20483;-86
2023/08/21 04:03:07;;;;;;;14.57;6.68;;;19.50;99.90;;;;;;4948165;29;20062;-86
2023/08/21 04:05:32;;;;;;;13.98;6.70;;;19.50;99.90;;;;;;4948535;29;20122;-86
2023/08/21 04:07:58;;;;;;;11.43;6.25;;;19.40;99.90;;;;;;4948452;29;20048;-86
2023/08/21 04:10:24;;;;;;;11.43;6.57;;;19.30;99.90;;;;;;4948399;29;20426;-85
2023/08/21 04:12:49;;;;;;;13.38;6.53;;;19.30;99.90;;;;;;4944521;28;20032;-86
2023/08/21 04:15:15;;;;;;;23.52;6.65;;;19.30;99.90;;;;;;4944726;29;20528;-85
2023/08/21 04:17:41;;;;;;;14.52;6.53;;;19.30;99.90;;;;;;4942905;28;20050;-86
2023/08/21 04:20:07;;;;;;;17.45;6.40;;;19.30;99.90;;;;;;4936222;28;20027;-85
2023/08/21 04:22:33;;;;;;;7.72;5.63;;;19.30;99.90;;;;;;4939190;28;20484;-85
2023/08/21 04:25:00;;;;;;;7.63;5.32;;;19.30;99.90;;;;;;4937080;28;20379;-86
2023/08/21 04:27:26;;;;;;;10.63;6.10;;;19.40;99.90;;;;;;4943566;28;20027;-86
2023/08/21 04:29:54;;;;;;;10.32;7.30;;;19.40;99.90;;;;;;4949292;28;20030;-86
2023/08/21 04:32:21;;;;;;;14.73;7.00;;;19.40;99.90;;;;;;4942250;28;20046;-84
2023/08/21 04:34:46;;;;;;;17.20;7.50;;;19.40;99.90;;;;;;4941656;28;20393;-85
2023/08/21 04:37:12;;;;;;;9.85;5.68;;;19.50;99.90;;;;;;4941292;28;20953;-85
2023/08/21 04:39:37;;;;;;;10.07;5.53;;;19.40;99.90;;;;;;4934393;29;20417;-85
2023/08/21 04:42:03;;;;;;;9.18;5.30;;;19.40;99.90;;;;;;4935140;29;20130;-86
2023/08/21 04:44:30;;;;;;;11.93;6.30;;;19.40;99.90;;;;;;4945106;29;20375;-85
2023/08/21 04:46:56;;;;;;;19.17;7.13;;;19.50;99.90;;;;;;4943768;28;20031;-84
2023/08/21 04:49:21;;;;;;;21.88;8.98;;;19.40;99.90;;;;;;4939984;29;20040;-84
2023/08/21 04:51:47;;;;;;;16.27;7.57;;;19.40;99.90;;;;;;4943232;29;20358;-84
2023/08/21 04:54:13;;;;;;;17.08;7.00;;;19.50;99.90;;;;;;4947662;29;20501;-84
2023/08/21 04:56:38;;;;;;;11.73;6.97;;;19.40;99.90;;;;;;4942013;28;20042;-84
2023/08/21 04:59:04;;;;;;;10.85;5.97;;;19.40;99.90;;;;;;4943962;28;20042;-85
2023/08/21 05:01:29;;;;;;;11.43;5.97;;;19.40;99.90;;;;;;4946918;28;20023;-84
2023/08/21 05:03:55;;;;;;;12.50;6.70;;;19.40;99.90;;;;;;4938723;28;20162;-84
2023/08/21 05:06:21;;;;;;;19.25;6.90;;;19.40;99.90;;;;;;4944878;28;20082;-84
2023/08/21 05:08:46;;;;;;;14.07;6.25;;;19.40;99.90;;;;;;4944678;28;20118;-85
2023/08/21 05:11:12;;;;;;;12.35;6.15;;;19.50;99.90;;;;;;4939849;29;20039;-85
2023/08/21 05:13:37;;;;;;;15.05;6.35;;;19.40;99.90;;;;;;4942836;29;20321;-85
2023/08/21 05:16:03;;;;;;;10.65;5.40;;;19.50;99.90;;;;;;4939156;29;20050;-85
2023/08/21 05:18:29;;;;;;;13.45;7.13;;;19.40;99.90;;;;;;4932029;29;20027;-85
2023/08/21 05:20:57;;;;;;;11.70;5.68;;;19.40;99.90;;;;;;4935923;29;20050;-85
2023/08/21 05:23:23;;;;;;;11.23;5.53;;;19.50;99.90;;;;;;4940293;29;20032;-85
2023/08/21 05:25:49;;;;;;;15.57;6.47;;;19.40;99.90;;;;;;4929201;29;20082;-85
2023/08/21 05:28:15;;;;;;;10.45;5.45;;;19.50;99.90;;;;;;4925570;28;20042;-85
2023/08/21 05:30:40;;;;;;;8.90;5.25;;;19.40;99.90;;;;;;4928950;29;20041;-85
2023/08/21 05:33:06;;;;;;;13.57;5.75;;;19.50;99.90;;;;;;4941583;29;20028;-84
2023/08/21 05:35:38;;;;;;;10.18;5.70;;;19.40;99.90;;;;;;4943017;28;20043;-85
2023/08/21 05:38:04;;;;;;;8.93;5.15;;;19.50;99.90;;;;;;4935267;29;20169;-85
2023/08/21 05:40:30;;;;;;;11.75;5.82;;;19.50;99.90;;;;;;4932890;29;20047;-85
2023/08/21 05:42:58;;;;;;;10.45;5.55;;;19.50;99.90;;;;;;4934090;29;20516;-85
2023/08/21 05:45:23;;;;;;;16.48;6.15;;;19.50;99.90;;;;;;4933852;29;20070;-85
2023/08/21 05:47:49;;;;;;;11.20;5.88;;;19.50;99.90;;;;;;4932666;29;20516;-85
2023/08/21 05:50:14;;;;;;;12.00;5.88;;;19.50;99.90;;;;;;4939911;29;20296;-85
2023/08/21 05:52:40;;;;;;;14.85;5.30;;;19.50;99.90;;;;;;4938311;29;20023;-85
2023/08/21 05:55:06;;;;;;;12.00;5.72;;;19.50;99.90;;;;;;4941919;28;20039;-85
2023/08/21 05:57:32;;;;;;;11.02;5.57;;;19.60;99.90;;;;;;4938615;28;20579;-84
2023/08/21 05:59:57;;;;;;;14.02;5.78;;;19.60;99.90;;;;;;4940529;28;20038;-85
2023/08/21 06:02:23;;;;;;;10.07;5.13;;;19.60;99.90;;;;;;4942734;29;20606;-85
2023/08/21 06:04:49;;;;;;;9.95;5.68;;;19.60;99.90;;;;;;4944759;28;20166;-85
2023/08/21 06:07:14;;;;;;;11.43;5.40;;;19.60;99.90;;;;;;4952550;28;20023;-85
2023/08/21 06:09:41;;;;;;;13.00;5.57;;;19.60;99.90;;;;;;4946447;28;20043;-85
2023/08/21 06:12:07;;;;;;;26.55;5.28;;;19.60;99.90;;;;;;4942999;29;20617;-85
2023/08/21 06:14:33;;;;;;;11.68;5.22;;;19.60;99.90;;;;;;4941140;28;20027;-85
2023/08/21 06:17:03;;;;;;;7.95;4.93;;;19.70;99.90;;;;;;4946062;28;20496;-85
2023/08/21 06:19:29;;;;;;;9.45;4.95;;;19.70;99.90;;;;;;4942940;29;20031;-85
2023/08/21 06:21:57;;;;;;;7.93;5.20;;;19.70;99.90;;;;;;4949323;29;20588;-85
2023/08/21 06:24:23;;;;;;;9.02;5.40;;;19.70;99.90;;;;;;4937438;29;20028;-84
2023/08/21 06:26:50;;;;;;;10.07;5.72;;;19.80;99.90;;;;;;4947286;29;20039;-85
2023/08/21 06:29:16;;;;;;;11.23;5.78;;;19.90;99.90;;;;;;4945847;28;20031;-85
2023/08/21 06:31:42;;;;;;;10.57;5.75;;;19.90;99.90;;;;;;4935718;28;20035;-85
2023/08/21 06:34:08;;;;;;;11.27;5.22;;;20.00;99.90;;;;;;4945739;28;20038;-85
2023/08/21 06:36:33;;;;;;;15.75;5.75;;;20.10;99.90;;;;;;4947197;28;20146;-85
2023/08/21 06:39:03;;;;;;;7.22;4.60;;;20.10;99.90;;;;;;4942307;29;20053;-85
2023/08/21 06:41:29;;;;;;;13.30;4.88;;;20.20;99.90;;;;;;4940435;29;20561;-85
2023/08/21 06:43:55;;;;;;;15.25;5.63;;;20.20;99.90;;;;;;4948665;29;20041;-85
2023/08/21 06:46:23;;;;;;;7.53;4.40;;;20.20;99.90;;;;;;4933246;29;20031;-84
2023/08/21 06:48:50;;;;;;;12.32;4.57;;;20.30;99.90;;;;;;4938390;29;20035;-85
2023/08/21 06:51:16;;;;;;;11.73;4.93;;;20.30;99.90;;;;;;4943109;29;20028;-85
2023/08/21 06:53:42;;;;;;;15.30;4.00;;;20.40;99.90;;;;;;4939762;29;20031;-84
2023/08/21 06:56:08;;;;;;;16.63;4.35;;;20.40;99.90;;;;;;4943586;29;20050;-85
2023/08/21 06:58:33;;;;;;;17.42;4.90;;;20.40;99.90;;;;;;4945319;29;20038;-85
2023/08/21 07:01:01;;;;;;;15.50;5.07;;;20.50;99.90;;;;;;4940575;29;20039;-85
2023/08/21 07:03:26;;;;;;;11.00;4.53;;;20.50;99.90;;;;;;4942113;29;20058;-84
2023/08/21 07:05:56;;;;;;;15.48;4.63;;;20.50;99.90;;;;;;4939195;28;20027;-84
2023/08/21 07:08:23;;;;;;;12.13;5.20;;;20.50;99.90;;;;;;4948732;28;20023;-84
2023/08/21 07:10:49;;;;;;;10.00;4.40;;;20.60;99.90;;;;;;4942751;28;20039;-85
2023/08/21 07:13:15;;;;;;;10.95;3.83;;;20.60;99.90;;;;;;4924950;29;20034;-85
2023/08/21 07:15:40;;;;;;;14.50;4.05;;;20.60;99.90;;;;;;4944691;29;20043;-85
2023/08/21 07:18:07;;;;;;;14.85;4.10;;;20.60;99.90;;;;;;4933307;29;20028;-86
2023/08/21 07:20:33;;;;;;;11.77;4.28;;;20.60;99.90;;;;;;4945682;29;20027;-85
2023/08/21 07:22:59;;;;;;;18.20;4.80;;;20.60;99.90;;;;;;4946566;28;20469;-85
2023/08/21 07:25:25;;;;;;;7.43;3.53;;;20.60;99.90;;;;;;4949276;29;20026;-85
2023/08/21 07:27:55;;;;;;;11.93;2.92;;;20.60;99.90;;;;;;4948961;29;20039;-84
2023/08/21 07:30:22;;;;;;;8.45;3.25;;;20.60;99.90;;;;;;4944056;29;20027;-85
2023/08/21 07:32:48;;;;;;;15.88;3.33;;;20.60;99.90;;;;;;4941921;29;20474;-84
2023/08/21 07:35:14;;;;;;;12.27;4.03;;;20.60;99.90;;;;;;4941163;28;20055;-85
2023/08/21 07:37:44;;;;;;;8.35;2.97;;;20.60;99.90;;;;;;4941109;29;20031;-84
2023/08/21 07:40:09;;;;;;;12.10;2.58;;;20.60;99.90;;;;;;4946100;28;20621;-85
2023/08/21 07:42:35;;;;;;;7.68;3.22;;;20.60;99.90;;;;;;4947711;28;20436;-85
2023/08/21 07:45:01;;;;;;;7.50;3.53;;;20.70;99.90;;;;;;4941966;29;20405;-85
2023/08/21 07:47:27;;;;;;;9.77;3.20;;;20.60;99.90;;;;;;4945044;28;20441;-84
2023/08/21 07:49:53;;;;;;;5.32;3.15;;;20.70;99.90;;;;;;4943752;28;20042;-85
2023/08/21 07:52:19;;;;;;;11.85;3.63;;;20.70;99.90;;;;;;4943891;28;20034;-85
2023/08/21 07:54:44;;;;;;;13.27;3.38;;;20.70;99.90;;;;;;4942127;28;20106;-85
2023/08/21 07:57:11;;;;;;;5.40;2.60;;;20.80;99.90;;;;;;4941591;28;20035;-85
2023/08/21 07:59:36;;;;;;;15.77;4.22;;;20.90;99.90;;;;;;4944830;29;20051;-86
2023/08/21 08:02:02;;;;;;;9.55;3.58;;;20.90;99.90;;;;;;4940497;28;20078;-85
2023/08/21 08:04:28;;;;;;;15.80;3.95;;;21.00;99.90;;;;;;4940648;28;20043;-85
2023/08/21 08:06:54;;;;;;;7.18;3.30;;;21.00;99.90;;;;;;4947024;29;20037;-86
2023/08/21 08:09:20;;;;;;;13.30;4.15;;;21.10;99.90;;;;;;4943754;29;20105;-85
2023/08/21 08:11:45;;;;;;;9.85;3.38;;;21.10;99.90;;;;;;4943651;29;20035;-86
2023/08/21 08:14:11;;;;;;;11.65;4.15;;;21.20;99.90;;;;;;4940483;29;20050;-85
2023/08/21 08:16:36;;;;;;;11.23;4.30;;;21.20;99.90;;;;;;4940655;29;20529;-85
2023/08/21 08:19:02;;;;;;;10.57;4.20;;;21.20;99.90;;;;;;4943705;29;20027;-85
2023/08/21 08:21:27;;;;;;;11.10;3.83;;;21.30;99.90;;;;;;4943774;28;20696;-85
2023/08/21 08:23:53;;;;;;;6.80;3.55;;;21.30;99.90;;;;;;4943014;29;20027;-86
2023/08/21 08:26:21;;;;;;;6.72;3.88;;;21.30;99.90;;;;;;4939197;29;20023;-86
2023/08/21 08:28:46;;;;;;;9.85;3.88;;;21.40;99.90;;;;;;4946402;29;20111;-86
2023/08/21 08:31:23;;;;;;;16.52;4.72;;;21.40;99.90;;;;;;4944065;29;20477;-85
2023/08/21 08:33:48;;;;;;;17.50;4.70;;;21.60;99.90;;;;;;4938122;29;20039;-88
2023/08/21 08:36:14;;;;;;;7.40;3.20;;;21.60;99.90;;;;;;4947462;29;20050;-87
2023/08/21 08:38:39;;;;;;;8.52;3.40;;;21.70;99.90;;;;;;4941519;29;20098;-85
2023/08/21 08:41:14;;;;;;;9.60;3.38;;;21.70;99.90;;;;;;4939369;29;20082;-86
2023/08/21 08:43:40;;;;;;;7.30;3.33;;;21.80;99.90;;;;;;4945354;28;20429;-86
2023/08/21 08:46:07;;;;;;;8.65;3.58;;;21.80;99.90;;;;;;4943480;28;20267;-86
2023/08/21 08:48:35;;;;;;;7.45;3.05;;;21.80;99.90;;;;;;4947596;29;20098;-87
2023/08/21 08:51:03;;;;;;;9.90;3.20;;;21.90;99.90;;;;;;4941889;28;20027;-85
2023/08/21 08:53:31;;;;;;;7.57;3.38;;;21.90;99.90;;;;;;4948096;28;20035;-87
2023/08/21 08:55:58;;;;;;;10.25;3.05;;;22.00;99.90;;;;;;4945575;29;20058;-86
2023/08/21 08:58:24;;;;;;;13.98;3.10;;;22.00;99.90;;;;;;4939761;28;20511;-85
2023/08/21 09:00:50;;;;;;;10.68;2.65;;;22.10;99.90;;;;;;4945419;29;20058;-85
2023/08/21 09:03:16;;;;;;;7.40;2.40;;;22.10;99.90;;;;;;4940477;29;20039;-85
2023/08/21 09:05:42;;;;;;;8.50;2.90;;;22.10;99.90;;;;;;4936781;29;20027;-85
2023/08/21 09:08:14;;;;;;;4.25;2.10;;;22.20;99.90;;;;;;4945565;29;20031;-86
2023/08/21 09:10:41;;;;;;;6.80;2.53;;;22.20;99.90;;;;;;4941465;29;20035;-85
2023/08/21 09:13:25;;;;;;;7.25;2.63;;;22.30;99.90;;;;;;4942911;29;20055;-87
2023/08/21 09:16:01;;;;;;;8.27;2.67;;;22.40;99.90;;;;;;4921988;29;20134;-88
2023/08/21 09:18:26;;;;;;;5.22;2.42;;;22.40;99.90;;;;;;4940088;28;20098;-85
2023/08/21 09:20:52;;;;;;;9.23;2.80;;;22.40;99.90;;;;;;4944414;29;20115;-86
2023/08/21 09:23:18;;;;;;;3.80;1.83;;;22.40;99.90;;;;;;4940771;29;20031;-85
2023/08/21 09:25:49;;;;;;;5.95;1.92;;;22.40;99.90;;;;;;4934289;29;20024;-87
2023/08/21 09:28:19;;;;;;;8.30;2.47;;;22.40;99.90;;;;;;4941997;29;20039;-82
2023/08/21 09:30:48;;;;;;;7.53;2.80;;;22.50;99.90;;;;;;4936380;29;20663;-86
2023/08/21 09:33:21;;;;;;;11.88;2.35;;;22.50;99.90;;;;;;4940143;29;20039;-87
2023/08/21 09:35:47;;;;;;;13.13;2.83;;;22.50;99.90;;;;;;4941641;29;20031;-87
2023/08/21 09:38:14;;;;;;;7.53;2.20;;;22.60;99.90;;;;;;4938016;29;20034;-88
2023/08/21 09:40:52;;;;;;;7.72;2.22;;;22.60;99.90;;;;;;4939639;29;20062;-86
2023/08/21 09:43:19;;;;;;;5.40;2.08;;;22.70;99.90;;;;;;4934228;29;20035;-87
2023/08/21 09:45:55;;;;;;;9.27;2.72;;;22.70;99.90;;;;;;4945864;28;20042;-87
2023/08/21 09:48:24;;;;;;;;;;;22.70;99.90;;;;;;4937612;29;20050;-87
2023/08/21 09:50:51;;;;;;;6.93;2.15;;;22.80;99.90;;;;;;4943951;28;19915;-87
2023/08/21 09:53:17;;;;;;;7.32;2.17;;;22.80;99.90;;;;;;4940661;29;20429;-88
2023/08/21 09:55:44;;;;;;;6.72;2.25;;;22.90;99.90;;;;;;4941258;29;20069;-88
2023/08/21 09:58:10;;;;;;;6.40;2.15;;;22.90;99.90;;;;;;4946347;28;20032;-89
2023/08/21 10:00:37;;;;;;;7.32;2.28;;;22.90;99.90;;;;;;4934896;29;20504;-88
2023/08/21 10:03:07;;;;;;;4.63;2.25;;;23.00;99.90;;;;;;4937118;29;20028;-87
2023/08/21 10:05:37;;;;;;;5.70;1.85;;;23.10;99.90;;;;;;4942619;28;20031;-87
2023/08/21 10:08:04;;;;;;;5.28;2.35;;;23.10;99.90;;;;;;4936488;29;20118;-88
2023/08/21 10:10:32;;;;;;;9.98;2.58;;;23.20;99.90;;;;;;4941723;29;20031;-88
2023/08/21 10:12:59;;;;;;;6.10;2.10;;;23.20;99.90;;;;;;4943843;29;20414;-87
2023/08/21 10:15:27;;;;;;;11.27;2.47;;;23.20;99.90;;;;;;4944816;28;20536;-87
2023/08/21 10:17:53;;;;;;;6.10;2.15;;;23.30;99.90;;;;;;4941785;29;20035;-87
2023/08/21 10:20:24;;;;;;;13.30;1.83;;;23.30;99.90;;;;;;4940209;29;20027;-87
2023/08/21 10:22:52;;;;;;;7.63;2.85;;;23.40;99.90;;;;;;4944376;29;20513;-85
2023/08/21 10:25:22;;;;;;;3.58;1.80;;;23.50;99.90;;;;;;4934243;29;20320;-89
2023/08/21 10:27:51;;;;;;;11.30;2.33;;;23.50;99.90;;;;;;4940427;29;20020;-88
2023/08/21 10:30:22;;;;;;;6.50;2.05;;;23.50;99.90;;;;;;4934752;29;20123;-90
2023/08/21 10:32:49;;;;;;;6.15;2.33;;;23.60;99.90;;;;;;4943256;29;20039;-89
2023/08/21 10:35:21;;;;;;;5.03;2.03;;;23.70;99.90;;;;;;4940831;29;20042;-88
2023/08/21 10:38:06;;;;;;;8.15;2.13;;;23.70;99.90;;;;;;4943482;28;20035;-89
2023/08/21 10:40:32;;;;;;;3.75;1.80;;;23.80;99.90;;;;;;4940777;28;20504;-88
2023/08/21 10:42:59;;;;;;;8.80;2.20;;;23.70;99.90;;;;;;4943468;28;20031;-85
2023/08/21 10:45:25;;;;;;;7.10;1.90;;;23.70;99.90;;;;;;4931084;29;20511;-88
2023/08/21 10:47:51;;;;;;;9.30;2.70;;;23.80;99.90;;;;;;4949236;29;20059;-86
2023/08/21 10:50:16;;;;;;;4.03;2.10;;;23.90;99.90;;;;;;4944726;29;20404;-88
2023/08/21 10:52:47;;;;;;;7.30;2.05;;;23.90;99.90;;;;;;4928392;29;20065;-87
2023/08/21 10:55:14;;;;;;;8.45;2.42;;;23.90;99.90;;;;;;4946091;29;20036;-88
2023/08/21 10:57:44;;;;;;;6.53;1.80;;;23.90;99.90;;;;;;4937751;28;20035;-88
2023/08/21 11:00:11;;;;;;;9.02;2.42;;;24.00;99.90;;;;;;4948567;29;20023;-89
2023/08/21 11:02:38;;;;;;;16.85;1.92;;;23.90;99.90;;;;;;4945221;29;20079;-89
2023/08/21 11:05:04;;;;;;;6.35;2.08;;;24.00;99.90;;;;;;4944030;29;20038;-88
2023/08/21 11:07:36;;;;;;;3.25;1.33;;;24.00;99.90;;;;;;4941117;29;20444;-89
2023/08/21 11:10:02;;;;;;;5.50;1.98;;;24.00;99.90;;;;;;4948210;29;20114;-88
2023/08/21 11:12:28;;;;;;;7.53;2.28;;;24.00;99.90;;;;;;4945907;29;20451;-87
2023/08/21 11:14:54;;;;;;;7.22;2.28;;;24.10;99.90;;;;;;4948335;29;20119;-87
2023/08/21 11:17:19;;;;;;;4.63;2.05;;;24.10;99.90;;;;;;4944997;28;20031;-86
2023/08/21 11:19:46;;;;;;;4.88;1.80;;;24.20;99.90;;;;;;4942531;29;20289;-88
2023/08/21 11:22:12;;;;;;;3.58;1.85;;;24.20;99.90;;;;;;4944841;29;20515;-85
2023/08/21 11:24:38;;;;;;;5.10;1.92;;;24.20;99.90;;;;;;4942588;29;20023;-87
2023/08/21 11:27:09;;;;;;;5.72;2.15;;;24.20;99.90;;;;;;4946659;29;20031;-87
2023/08/21 11:29:40;;;;;;;6.75;1.70;;;24.30;99.90;;;;;;4939836;28;20027;-90
2023/08/21 11:32:13;;;;;;;5.75;2.05;;;24.30;99.90;;;;;;4947213;29;20030;-87
2023/08/21 11:34:41;;;;;;;5.50;2.05;;;24.30;99.90;;;;;;4948350;28;20067;-89
2023/08/21 11:37:07;;;;;;;5.88;2.20;;;24.30;99.90;;;;;;4939262;29;20031;-89
2023/08/21 11:39:59;;;;;;;7.68;2.20;;;24.20;99.90;;;;;;4941364;29;20019;-87
2023/08/21 11:42:32;;;;;;;6.40;1.90;;;24.10;99.90;;;;;;4939076;29;20050;-85
2023/08/21 11:45:01;;;;;;;5.80;2.35;;;24.00;99.90;;;;;;4940743;28;20110;-85
2023/08/21 11:47:34;;;;;;;6.43;2.83;;;24.00;99.90;;;;;;4940437;29;20118;-85
2023/08/21 11:50:05;;;;;;;2.58;1.40;;;24.00;99.90;;;;;;4938693;29;20058;-90
2023/08/21 11:52:37;;;;;;;9.57;1.85;;;24.10;99.90;;;;;;4938128;28;20487;-87
2023/08/21 11:55:07;;;;;;;7.45;2.28;;;24.10;99.90;;;;;;4944936;29;20039;-89
2023/08/21 11:57:33;;;;;;;6.30;2.28;;;24.20;99.90;;;;;;4942137;28;20362;-88
2023/08/21 11:59:59;;;;;;;7.78;2.13;;;24.20;99.90;;;;;;4947556;29;20616;-89
2023/08/21 12:02:26;;;;;;;4.63;2.17;;;24.20;99.90;;;;;;4942988;29;20020;-89
2023/08/21 12:04:54;;;;;;;9.82;2.40;;;24.20;99.90;;;;;;4946240;29;20035;-85
2023/08/21 12:07:19;;;;;;;3.70;2.00;;;24.20;99.90;;;;;;4947934;28;20031;-87
2023/08/21 12:09:49;;;;;;;5.70;2.33;;;24.20;99.90;;;;;;4944273;29;20024;-89
2023/08/21 12:12:15;;;;;;;3.35;2.00;;;24.20;99.90;;;;;;4940307;29;20276;-88
2023/08/21 12:14:40;;;;;;;11.73;2.30;;;24.20;99.90;;;;;;4946417;29;20059;-85
2023/08/21 12:17:09;;;;;;;4.80;2.40;;;24.30;99.90;;;;;;4941470;29;20480;-85
2023/08/21 12:19:34;;;;;;;8.73;2.25;;;24.40;99.90;;;;;;4937704;29;20051;-89
2023/08/21 12:22:00;;;;;;;6.65;2.38;;;24.50;99.90;;;;;;4937506;29;20035;-89
2023/08/21 12:24:26;;;;;;;6.45;2.75;;;24.60;99.90;;;;;;4943936;29;20389;-85
2023/08/21 12:26:52;;;;;;;8.27;2.38;;;24.60;99.90;;;;;;4944445;29;20070;-86
2023/08/21 12:29:17;;;;;;;4.55;2.13;;;24.60;99.90;;;;;;4940141;29;20026;-86
2023/08/21 12:31:43;;;;;;;6.95;2.30;;;24.60;99.90;;;;;;4931140;29;20035;-87
2023/08/21 12:34:09;;;;;;;8.65;2.53;;;24.60;99.90;;;;;;4948011;29;20043;-88
2023/08/21 12:36:36;;;;;;;9.38;2.83;;;24.60;99.90;;;;;;4943102;28;20063;-88
2023/08/21 12:39:03;;;;;;;9.70;2.50;;;24.50;99.90;;;;;;4943739;29;20027;-87